Time;durP1;ratioP1;P1;durP2;ratioP2;P2;SDS_P1;SDS_P2;PMS_P1;PMS_P2;Temp;Humidity;BMP_temperature;BMP_pressure;BME280_temperature;BME280_humidity;BME280_pressure;Samples;Min_cycle;Max_cycle;Signal;HPM_P1;HPM_P2
2021/06/07 00:01:58;;;;;;;;;;;;;;;14.54;61.86;102455.53;5134525;27;20340;-40
2021/06/07 00:04:24;;;;;;;;;;;;;;;14.50;62.22;102459.75;5134834;27;19911;-39
2021/06/07 00:06:49;;;;;;;;;;;;;;;14.45;62.03;102456.81;5134741;28;19912;-40
2021/06/07 00:09:15;;;;;;;;;;;;;;;14.44;61.63;102455.13;5135535;28;20260;-40
2021/06/07 00:11:42;;;;;;;;;;;;;;;14.39;61.84;102460.38;5134755;28;19911;-40
2021/06/07 00:14:08;;;;;;;;;;;;;;;14.33;62.32;102458.53;5135250;28;19911;-40
2021/06/07 00:16:34;;;;;;;;;;;;;;;14.27;61.91;102456.69;5134750;28;19956;-40
2021/06/07 00:19:00;;;;;;;;;;;;;;;14.25;61.89;102456.06;5135650;28;19911;-40
2021/06/07 00:21:26;;;;;;;;;;;;;;;14.20;62.28;102458.59;5134717;28;19912;-40
2021/06/07 00:23:52;;;;;;;;;;;;;;;14.18;62.05;102451.47;5134790;28;19968;-39
2021/06/07 00:26:17;;;;;;;;;;;;;;;14.15;62.69;102454.66;5134171;28;19911;-40
2021/06/07 00:28:43;;;;;;;;;;;;;;;14.13;62.26;102455.91;5134025;28;19918;-40
2021/06/07 00:31:08;;;;;;;;;;;;;;;14.08;62.74;102456.56;5134904;28;19919;-40
2021/06/07 00:33:34;;;;;;;;;;;;;;;14.05;62.55;102447.97;5133262;28;19911;-39
2021/06/07 00:36:00;;;;;;;;;;;;;;;14.02;62.35;102451.97;5135331;28;19915;-40
2021/06/07 00:38:25;;;;;;;;;;;;;;;14.00;62.62;102453.22;5135004;28;20271;-40
2021/06/07 00:40:50;;;;;;;;;;;;;;;13.95;62.90;102451.16;5134818;28;19962;-40
2021/06/07 00:43:16;;;;;;;;;;;;;;;13.91;62.77;102448.03;5134465;28;19911;-39
2021/06/07 00:45:41;;;;;;;;;;;;;;;13.88;62.95;102448.47;5135257;28;19911;-40
2021/06/07 00:48:07;;;;;;;;;;;;;;;13.84;62.66;102455.38;5134110;28;19912;-40
2021/06/07 00:50:35;;;;;;;;;;;;;;;13.79;62.77;102460.63;5134894;28;19911;-40
2021/06/07 00:53:04;;;;;;;;;;;;;;;13.78;62.73;102456.22;5134301;28;20317;-39
2021/06/07 00:55:37;;;;;;;;;;;;;;;13.75;62.96;102456.66;5134640;28;19918;-40
2021/06/07 00:58:03;;;;;;;;;;;;;;;13.72;63.15;102448.94;5132972;28;19911;-39
2021/06/07 01:00:28;;;;;;;;;;;;;;;13.71;63.32;102460.00;5134810;27;20017;-39
2021/06/07 01:02:54;;;;;;;;;;;;;;;13.67;63.19;102462.34;5138204;27;19951;-39
2021/06/07 01:05:20;;;;;;;;;;;;;;;13.64;63.27;102458.13;5138185;27;20297;-40
2021/06/07 01:07:45;;;;;;;;;;;;;;;13.61;63.37;102458.56;5138604;27;19918;-40
2021/06/07 01:10:11;;;;;;;;;;;;;;;13.59;63.53;102457.94;5138056;27;19911;-40
2021/06/07 01:12:36;;;;;;;;;;;;;;;13.53;63.46;102457.97;5137903;27;20375;-40
2021/06/07 01:15:03;;;;;;;;;;;;;;;13.51;63.52;102452.72;5138002;27;19911;-40
2021/06/07 01:17:28;;;;;;;;;;;;;;;13.48;63.49;102450.44;5137490;27;20302;-40
2021/06/07 01:19:54;;;;;;;;;;;;;;;13.44;63.65;102446.47;5137923;27;19911;-40
2021/06/07 01:22:19;;;;;;;;;;;;;;;13.40;64.02;102447.94;5137747;27;19911;-40
2021/06/07 01:24:45;;;;;;;;;;;;;;;13.37;63.83;102443.78;5138138;27;19915;-40
2021/06/07 01:27:10;;;;;;;;;;;;;;;13.32;63.82;102431.84;5137942;27;19915;-40
2021/06/07 01:29:36;;;;;;;;;;;;;;;13.28;63.90;102427.91;5137978;27;20244;-40
2021/06/07 01:32:01;;;;;;;;;;;;;;;13.27;64.36;102429.75;5137857;27;20365;-40
2021/06/07 01:34:26;;;;;;;;;;;;;;;13.26;63.91;102427.25;5136096;27;20394;-40
2021/06/07 01:36:52;;;;;;;;;;;;;;;13.24;64.04;102434.78;5136435;27;19960;-40
2021/06/07 01:39:17;;;;;;;;;;;;;;;13.23;64.27;102436.69;5137476;27;19911;-40
2021/06/07 01:41:42;;;;;;;;;;;;;;;13.20;64.28;102425.34;5136422;27;20002;-40
2021/06/07 01:44:07;;;;;;;;;;;;;;;13.19;64.23;102437.28;5137699;27;19915;-40
2021/06/07 01:46:33;;;;;;;;;;;;;;;13.18;64.06;102435.59;5137417;27;19911;-40
2021/06/07 01:48:58;;;;;;;;;;;;;;;13.13;64.95;102434.34;5137214;27;20084;-39
2021/06/07 01:51:23;;;;;;;;;;;;;;;13.08;64.49;102431.44;5137301;27;20338;-40
2021/06/07 01:53:48;;;;;;;;;;;;;;;13.07;64.39;102431.63;5137204;27;19911;-40
2021/06/07 01:56:14;;;;;;;;;;;;;;;13.07;64.70;102431.63;5137791;27;19912;-39
2021/06/07 01:58:39;;;;;;;;;;;;;;;13.04;64.71;102427.44;5137048;27;20113;-40
2021/06/07 02:01:05;;;;;;;;;;;;;;;13.02;64.42;102432.25;5136123;27;19931;-40
2021/06/07 02:03:30;;;;;;;;;;;;;;;13.01;64.73;102438.72;5136996;27;20307;-40
2021/06/07 02:05:57;;;;;;;;;;;;;;;13.01;64.49;102433.28;5137644;27;19911;-40
2021/06/07 02:08:23;;;;;;;;;;;;;;;12.98;64.88;102428.28;5136556;27;19987;-40
2021/06/07 02:10:55;;;;;;;;;;;;;;;12.96;64.60;102441.22;5136858;27;19915;-40
2021/06/07 02:13:21;;;;;;;;;;;;;;;12.93;64.75;102438.09;5136757;27;19922;-39
2021/06/07 02:15:53;;;;;;;;;;;;;;;12.88;65.01;102436.00;5137034;27;19964;-40
2021/06/07 02:18:19;;;;;;;;;;;;;;;12.87;65.15;102442.47;5136332;27;19989;-40
2021/06/07 02:20:44;;;;;;;;;;;;;;;12.85;65.45;102444.56;5136398;27;19911;-40
2021/06/07 02:23:09;;;;;;;;;;;;;;;12.83;65.22;102443.91;5136835;27;20069;-40
2021/06/07 02:25:34;;;;;;;;;;;;;;;12.81;65.14;102446.84;5136437;27;19915;-40
2021/06/07 02:28:00;;;;;;;;;;;;;;;12.78;64.91;102439.13;5137284;27;19915;-39
2021/06/07 02:30:26;;;;;;;;;;;;;;;12.74;65.43;102440.59;5136762;27;19994;-39
2021/06/07 02:32:53;;;;;;;;;;;;;;;12.72;65.21;102439.94;5136325;27;19911;-40
2021/06/07 02:35:19;;;;;;;;;;;;;;;12.70;65.11;102442.03;5136395;27;19912;-40
2021/06/07 02:37:46;;;;;;;;;;;;;;;12.67;65.29;102447.03;5136566;27;19911;-40
2021/06/07 02:40:12;;;;;;;;;;;;;;;12.64;65.58;102445.59;5136687;27;20374;-39
2021/06/07 02:42:38;;;;;;;;;;;;;;;12.59;65.38;102448.91;5135690;27;19918;-39
2021/06/07 02:45:04;;;;;;;;;;;;;;;12.57;65.44;102447.44;5136162;27;19911;-40
2021/06/07 02:47:29;;;;;;;;;;;;;;;12.52;65.60;102445.34;5136038;27;19957;-39
2021/06/07 02:49:55;;;;;;;;;;;;;;;12.49;65.79;102451.19;5136114;27;19915;-39
2021/06/07 02:52:20;;;;;;;;;;;;;;;12.46;65.88;102446.16;5134777;27;19960;-40
2021/06/07 02:54:45;;;;;;;;;;;;;;;12.43;65.60;102446.56;5136228;27;19912;-39
2021/06/07 02:57:11;;;;;;;;;;;;;;;12.41;65.81;102447.81;5136005;27;20340;-39
2021/06/07 02:59:36;;;;;;;;;;;;;;;12.36;65.67;102446.56;5136436;27;19999;-40
2021/06/07 03:02:01;;;;;;;;;;;;;;;12.33;65.98;102451.53;5134801;27;19911;-40
2021/06/07 03:04:27;;;;;;;;;;;;;;;12.30;66.16;102458.22;5136128;27;19918;-40
2021/06/07 03:06:52;;;;;;;;;;;;;;;12.29;65.59;102459.25;5135665;27;19955;-40
2021/06/07 03:09:17;;;;;;;;;;;;;;;12.27;65.70;102453.19;5135949;27;19912;-40
2021/06/07 03:11:43;;;;;;;;;;;;;;;12.26;66.09;102461.53;5135331;27;19911;-40
2021/06/07 03:14:08;;;;;;;;;;;;;;;12.25;66.25;102462.56;5134363;27;19919;-40
2021/06/07 03:16:33;;;;;;;;;;;;;;;12.24;66.03;102467.16;5136365;27;19912;-39
2021/06/07 03:18:59;;;;;;;;;;;;;;;12.19;66.19;102474.22;5135739;27;19920;-39
2021/06/07 03:21:24;;;;;;;;;;;;;;;12.16;65.81;102471.94;5135839;27;19926;-39
2021/06/07 03:23:49;;;;;;;;;;;;;;;12.14;66.06;102468.56;5134574;27;19915;-39
2021/06/07 03:26:14;;;;;;;;;;;;;;;12.14;66.25;102468.56;5135683;27;19972;-40
2021/06/07 03:28:40;;;;;;;;;;;;;;;12.14;66.41;102463.97;5135593;27;19918;-39
2021/06/07 03:31:06;;;;;;;;;;;;;;;12.16;66.13;102474.66;5136163;27;19911;-39
2021/06/07 03:33:31;;;;;;;;;;;;;;;12.15;66.19;102471.09;5134944;27;19952;-40
2021/06/07 03:35:57;;;;;;;;;;;;;;;12.16;66.37;102472.78;5135505;27;20312;-40
2021/06/07 03:38:23;;;;;;;;;;;;;;;12.13;66.41;102477.75;5135153;27;20259;-40
2021/06/07 03:40:52;;;;;;;;;;;;;;;12.08;66.36;102476.47;5134794;27;20271;-39
2021/06/07 03:43:17;;;;;;;;;;;;;;;12.08;66.82;102481.06;5135090;27;19918;-39
2021/06/07 03:45:43;;;;;;;;;;;;;;;12.05;66.42;102474.19;5135141;27;20358;-39
2021/06/07 03:48:08;;;;;;;;;;;;;;;12.07;67.00;102473.97;5134988;27;19912;-39
2021/06/07 03:50:35;;;;;;;;;;;;;;;12.04;66.44;102468.94;5134801;27;19918;-39
2021/06/07 03:53:00;;;;;;;;;;;;;;;12.05;66.72;102473.31;5134634;27;19915;-39
2021/06/07 03:55:26;;;;;;;;;;;;;;;12.05;66.92;102474.19;5133880;27;19912;-39
2021/06/07 03:57:52;;;;;;;;;;;;;;;12.07;66.72;102480.22;5135135;27;19946;-39
2021/06/07 04:00:19;;;;;;;;;;;;;;;12.05;66.77;102466.03;5135149;27;19911;-39
2021/06/07 04:02:44;;;;;;;;;;;;;;;12.04;66.99;102480.63;5135183;27;19917;-39
2021/06/07 04:05:10;;;;;;;;;;;;;;;12.04;67.00;102477.91;5135126;27;20010;-39
2021/06/07 04:07:36;;;;;;;;;;;;;;;12.04;66.79;102480.63;5134810;27;19911;-39
2021/06/07 04:10:06;;;;;;;;;;;;;;;12.03;66.57;102473.53;5134812;28;19918;-39
2021/06/07 04:12:31;;;;;;;;;;;;;;;12.02;66.82;102482.72;5135499;28;19979;-39
2021/06/07 04:14:56;;;;;;;;;;;;;;;12.00;66.81;102479.34;5135295;28;20406;-39
2021/06/07 04:17:23;;;;;;;;;;;;;;;12.01;67.10;102483.75;5135272;28;20305;-39
2021/06/07 04:19:48;;;;;;;;;;;;;;;12.04;66.82;102479.78;5134945;28;19911;-39
2021/06/07 04:22:13;;;;;;;;;;;;;;;12.06;67.19;102477.72;5134614;28;20385;-39
2021/06/07 04:24:39;;;;;;;;;;;;;;;12.06;66.72;102473.13;5134835;28;19916;-39
2021/06/07 04:27:04;;;;;;;;;;;;;;;12.11;67.04;102480.69;5134312;28;19926;-39
2021/06/07 04:29:29;;;;;;;;;;;;;;;12.17;67.41;102476.31;5134559;28;19957;-39
2021/06/07 04:31:55;;;;;;;;;;;;;;;12.24;67.06;102479.88;5134512;28;19919;-39
2021/06/07 04:34:20;;;;;;;;;;;;;;;12.28;67.49;102478.44;5134523;28;19911;-39
2021/06/07 04:36:45;;;;;;;;;;;;;;;12.36;67.13;102486.41;5137259;27;20371;-39
2021/06/07 04:39:11;;;;;;;;;;;;;;;12.46;67.51;102486.84;5138530;27;20006;-39
2021/06/07 04:41:36;;;;;;;;;;;;;;;12.58;67.50;102484.38;5138840;27;19912;-39
2021/06/07 04:44:02;;;;;;;;;;;;;;;12.69;67.81;102477.50;5138509;27;19911;-39
2021/06/07 04:46:27;;;;;;;;;;;;;;;12.79;67.43;102477.97;5138441;27;19911;-39
2021/06/07 04:48:53;;;;;;;;;;;;;;;12.91;68.17;102478.19;5138299;27;19911;-39
2021/06/07 04:51:18;;;;;;;;;;;;;;;13.00;67.70;102477.78;5138686;27;20286;-39
2021/06/07 04:53:43;;;;;;;;;;;;;;;13.13;68.15;102477.81;5138538;27;19919;-39
2021/06/07 04:56:08;;;;;;;;;;;;;;;13.25;67.24;102472.59;5138615;27;19911;-39
2021/06/07 04:58:34;;;;;;;;;;;;;;;13.39;66.44;102473.44;5138505;27;20009;-39
2021/06/07 05:01:06;;;;;;;;;;;;;;;13.47;66.14;102467.81;5138221;27;19915;-39
2021/06/07 05:03:32;;;;;;;;;;;;;;;13.55;66.23;102470.28;5138346;27;20423;-39
2021/06/07 05:05:58;;;;;;;;;;;;;;;13.58;66.15;102478.03;5138799;27;19916;-39
2021/06/07 05:08:24;;;;;;;;;;;;;;;13.63;65.93;102475.50;5138660;27;19911;-39
2021/06/07 05:10:49;;;;;;;;;;;;;;;13.68;66.12;102469.44;5138083;27;19911;-40
2021/06/07 05:13:14;;;;;;;;;;;;;;;13.79;65.66;102473.38;5137715;27;19912;-40
2021/06/07 05:15:40;;;;;;;;;;;;;;;13.89;65.63;102480.03;5138281;27;20048;-40
2021/06/07 05:18:06;;;;;;;;;;;;;;;14.01;65.36;102472.06;5138490;27;19949;-40
2021/06/07 05:20:31;;;;;;;;;;;;;;;14.10;65.12;102472.66;5138619;27;19912;-40
2021/06/07 05:22:57;;;;;;;;;;;;;;;14.18;65.03;102478.69;5137787;27;20003;-40
2021/06/07 05:25:24;;;;;;;;;;;;;;;14.25;64.58;102480.53;5138075;27;19921;-40
2021/06/07 05:27:50;;;;;;;;;;;;;;;14.33;64.90;102469.41;5136713;27;19911;-39
2021/06/07 05:30:16;;;;;;;;;;;;;;;14.47;64.64;102478.38;5138262;27;20357;-39
2021/06/07 05:32:41;;;;;;;;;;;;;;;14.52;64.31;102482.13;5137800;27;19918;-39
2021/06/07 05:35:07;;;;;;;;;;;;;;;14.57;63.98;102476.88;5137597;27;19911;-39
2021/06/07 05:37:33;;;;;;;;;;;;;;;14.61;63.81;102480.81;5137145;27;19911;-40
2021/06/07 05:39:58;;;;;;;;;;;;;;;14.65;63.95;102481.22;5137594;27;19912;-40
2021/06/07 05:42:23;;;;;;;;;;;;;;;14.74;63.87;102479.06;5137433;27;19956;-40
2021/06/07 05:44:49;;;;;;;;;;;;;;;14.81;63.65;102486.16;5138002;27;19911;-39
2021/06/07 05:47:14;;;;;;;;;;;;;;;14.89;63.45;102485.06;5136906;27;19911;-39
2021/06/07 05:49:39;;;;;;;;;;;;;;;14.96;62.86;102476.84;5137339;27;19950;-39
2021/06/07 05:52:09;;;;;;;;;;;;;;;15.02;63.40;102479.50;5136920;27;19956;-40
2021/06/07 05:54:35;;;;;;;;;;;;;;;15.08;62.95;102484.09;5137200;27;20363;-40
2021/06/07 05:57:01;;;;;;;;;;;;;;;15.18;63.02;102484.44;5137177;27;19922;-40
2021/06/07 05:59:26;;;;;;;;;;;;;;;15.23;62.65;102486.50;5137645;27;19912;-39
2021/06/07 06:01:51;;;;;;;;;;;;;;;15.14;62.24;102482.38;5137100;27;19911;-39
2021/06/07 06:04:16;;;;;;;;;;;;;;;15.14;62.58;102485.91;5137314;27;19916;-39
2021/06/07 06:06:42;;;;;;;;;;;;;;;15.10;61.13;102473.78;5137270;27;20251;-39
2021/06/07 06:09:07;;;;;;;;;;;;;;;15.11;61.03;102480.91;5136881;27;20467;-39
2021/06/07 06:11:32;;;;;;;;;;;;;;;15.18;61.71;102478.97;5137107;27;19917;-40
2021/06/07 06:13:58;;;;;;;;;;;;;;;15.31;62.35;102483.47;5136747;27;20367;-40
2021/06/07 06:16:23;;;;;;;;;;;;;;;15.46;61.19;102480.41;5136895;27;20358;-39
2021/06/07 06:18:49;;;;;;;;;;;;;;;15.55;61.78;102478.22;5137008;27;20018;-39
2021/06/07 06:21:14;;;;;;;;;;;;;;;15.64;61.20;102476.91;5136759;27;19917;-39
2021/06/07 06:23:40;;;;;;;;;;;;;;;15.63;60.28;102476.09;5136507;27;19919;-40
2021/06/07 06:26:09;;;;;;;;;;;;;;;15.64;59.35;102476.91;5136634;27;19946;-40
2021/06/07 06:28:37;;;;;;;;;;;;;;;15.62;59.61;102474.38;5136573;27;20313;-39
2021/06/07 06:31:06;;;;;;;;;;;;;;;15.68;60.30;102472.69;5136510;27;19911;-40
2021/06/07 06:33:32;;;;;;;;;;;;;;;15.74;59.71;102477.22;5135996;27;19911;-39
2021/06/07 06:35:57;;;;;;;;;;;;;;;15.81;58.95;102477.16;5136999;27;20005;-39
2021/06/07 06:38:23;;;;;;;;;;;;;;;15.88;59.46;102486.09;5136075;27;19998;-40
2021/06/07 06:40:48;;;;;;;;;;;;;;;15.93;57.90;102480.81;5136516;27;19911;-40
2021/06/07 06:43:14;;;;;;;;;;;;;;;15.98;56.82;102472.78;5136714;27;20232;-40
2021/06/07 06:45:39;;;;;;;;;;;;;;;16.02;57.89;102473.97;5136531;27;19916;-40
2021/06/07 06:48:05;;;;;;;;;;;;;;;16.02;55.79;102467.69;5136172;27;20268;-39
2021/06/07 06:50:33;;;;;;;;;;;;;;;16.14;57.33;102476.78;5136131;27;19915;-40
2021/06/07 06:52:58;;;;;;;;;;;;;;;16.18;56.66;102467.91;5135700;27;19918;-40
2021/06/07 06:55:24;;;;;;;;;;;;;;;16.22;56.48;102469.13;5135629;27;19911;-39
2021/06/07 06:57:49;;;;;;;;;;;;;;;16.31;57.06;102479.72;5135959;27;19994;-39
2021/06/07 07:00:15;;;;;;;;;;;;;;;16.40;57.24;102472.91;5135944;27;19911;-40
2021/06/07 07:02:40;;;;;;;;;;;;;;;16.42;55.81;102476.22;5135535;27;19965;-40
2021/06/07 07:05:05;;;;;;;;;;;;;;;16.45;55.17;102473.03;5135647;27;19918;-40
2021/06/07 07:07:31;;;;;;;;;;;;;;;16.47;55.38;102470.91;5135528;27;19916;-39
2021/06/07 07:09:56;;;;;;;;;;;;;;;16.57;55.87;102468.44;5134303;27;19958;-40
2021/06/07 07:12:23;;;;;;;;;;;;;;;16.65;54.47;102468.13;5135679;27;19911;-39
2021/06/07 07:14:48;;;;;;;;;;;;;;;16.70;54.73;102464.69;5135143;27;19915;-40
2021/06/07 07:17:13;;;;;;;;;;;;;;;16.73;53.64;102472.44;5135630;27;19911;-40
2021/06/07 07:19:39;;;;;;;;;;;;;;;16.78;54.40;102463.53;5136142;27;19915;-40
2021/06/07 07:22:05;;;;;;;;;;;;;;;16.85;54.63;102469.75;5135573;27;19911;-39
2021/06/07 07:24:30;;;;;;;;;;;;;;;16.95;54.50;102467.28;5135833;27;20266;-40
2021/06/07 07:26:56;;;;;;;;;;;;;;;17.00;53.66;102456.47;5135713;27;19915;-40
2021/06/07 07:29:21;;;;;;;;;;;;;;;17.01;51.48;102471.81;5135107;27;19915;-39
2021/06/07 07:31:46;;;;;;;;;;;;;;;17.07;53.47;102475.50;5135888;27;19911;-40
2021/06/07 07:34:12;;;;;;;;;;;;;;;17.09;51.74;102470.66;5135180;27;19918;-39
2021/06/07 07:36:37;;;;;;;;;;;;;;;17.11;51.34;102474.78;5135617;27;19915;-39
2021/06/07 07:39:02;;;;;;;;;;;;;;;17.14;52.06;102470.78;5134835;27;19960;-39
2021/06/07 07:41:28;;;;;;;;;;;;;;;17.21;53.18;102475.03;5134253;27;19951;-39
2021/06/07 07:43:53;;;;;;;;;;;;;;;17.31;53.78;102470.91;5135395;27;19912;-39
2021/06/07 07:46:19;;;;;;;;;;;;;;;17.39;51.96;102470.56;5136039;27;19915;-40
2021/06/07 07:48:44;;;;;;;;;;;;;;;17.46;53.66;102468.53;5135385;27;20012;-39
2021/06/07 07:51:09;;;;;;;;;;;;;;;17.53;53.17;102463.78;5135351;27;19915;-40
2021/06/07 07:53:34;;;;;;;;;;;;;;;17.61;52.98;102466.13;5135003;27;20355;-39
2021/06/07 07:56:00;;;;;;;;;;;;;;;17.73;53.19;102463.44;5135092;27;20289;-40
2021/06/07 07:58:25;;;;;;;;;;;;;;;17.72;51.27;102473.53;5134945;27;20282;-40
2021/06/07 08:00:52;;;;;;;;;;;;;;;17.77;51.46;102466.53;5134909;27;19911;-40
2021/06/07 08:03:17;;;;;;;;;;;;;;;17.88;52.13;102465.69;5135255;27;20384;-40
2021/06/07 08:05:43;;;;;;;;;;;;;;;17.94;52.17;102460.06;5134970;27;19946;-40
2021/06/07 08:08:08;;;;;;;;;;;;;;;18.01;50.95;102466.25;5134856;27;19912;-40
2021/06/07 08:10:33;;;;;;;;;;;;;;;18.10;50.56;102461.22;5134447;27;19939;-40
2021/06/07 08:12:59;;;;;;;;;;;;;;;18.13;49.88;102452.53;5135104;27;19911;-39
2021/06/07 08:15:25;;;;;;;;;;;;;;;18.21;49.58;102454.88;5133833;28;19911;-39
2021/06/07 08:17:50;;;;;;;;;;;;;;;18.32;50.16;102455.91;5134719;28;20359;-40
2021/06/07 08:20:17;;;;;;;;;;;;;;;18.43;49.77;102457.78;5134441;28;19911;-40
2021/06/07 08:22:43;;;;;;;;;;;;;;;18.48;49.48;102454.28;5135207;28;20009;-40
2021/06/07 08:25:09;;;;;;;;;;;;;;;18.64;49.85;102448.03;5135031;28;20019;-40
2021/06/07 08:27:34;;;;;;;;;;;;;;;18.82;49.03;102454.41;5134558;28;19912;-40
2021/06/07 08:29:59;;;;;;;;;;;;;;;18.92;50.06;102449.09;5134423;28;19915;-40
2021/06/07 08:32:25;;;;;;;;;;;;;;;19.01;46.75;102447.59;5134911;28;19937;-40
2021/06/07 08:34:50;;;;;;;;;;;;;;;19.10;48.93;102451.59;5134637;28;19920;-40
2021/06/07 08:37:15;;;;;;;;;;;;;;;19.21;48.62;102456.16;5134602;28;19912;-40
2021/06/07 08:39:40;;;;;;;;;;;;;;;19.27;48.09;102457.88;5134558;28;19926;-40
2021/06/07 08:42:06;;;;;;;;;;;;;;;19.39;47.57;102448.75;5134239;28;20011;-40
2021/06/07 08:44:31;;;;;;;;;;;;;;;19.50;48.96;102451.41;5135122;28;19960;-40
2021/06/07 08:46:57;;;;;;;;;;;;;;;19.68;48.16;102453.06;5134468;27;20291;-40
2021/06/07 08:49:23;;;;;;;;;;;;;;;19.86;47.97;102460.16;5134757;28;19918;-40
2021/06/07 08:51:49;;;;;;;;;;;;;;;20.00;48.21;102455.13;5134727;28;19919;-40
2021/06/07 08:54:14;;;;;;;;;;;;;;;20.13;47.14;102449.25;5134369;28;19911;-40
2021/06/07 08:56:40;;;;;;;;;;;;;;;20.17;47.50;102461.38;5134381;28;20282;-40
2021/06/07 08:59:05;;;;;;;;;;;;;;;20.20;44.17;102455.34;5133936;28;20018;-40
2021/06/07 09:01:31;;;;;;;;;;;;;;;20.23;46.58;102454.84;5134855;28;19958;-40
2021/06/07 09:04:07;;;;;;;;;;;;;;;20.25;44.94;102449.94;5134438;28;19919;-40
2021/06/07 09:06:37;;;;;;;;;;;;;;;20.36;46.65;102444.56;5134014;28;19911;-40
2021/06/07 09:09:07;;;;;;;;;;;;;;;20.54;46.27;102446.97;5134552;28;20328;-40
2021/06/07 09:11:44;;;;;;;;;;;;;;;20.63;42.97;102447.34;5134513;28;20355;-40
2021/06/07 09:14:17;;;;;;;;;;;;;;;20.78;44.60;102448.31;5134506;28;19922;-40
2021/06/07 09:16:42;;;;;;;;;;;;;;;20.89;45.03;102452.00;5134224;28;19947;-40
2021/06/07 09:19:21;;;;;;;;;;;;;;;20.85;44.87;102459.09;5134163;28;20019;-40
2021/06/07 09:21:46;;;;;;;;;;;;;;;20.85;44.15;102450.88;5135796;27;19915;-41
2021/06/07 09:24:13;;;;;;;;;;;;;;;20.79;43.59;102450.00;5136325;27;19916;-41
2021/06/07 09:26:40;;;;;;;;;;;;;;;20.52;43.90;102447.25;5138344;27;20327;-39
2021/06/07 09:29:05;;;;;;;;;;;;;;;20.59;44.46;102447.03;5137988;27;20011;-39
2021/06/07 09:31:33;;;;;;;;;;;;;;;20.72;45.49;102448.53;5137970;27;19966;-39
2021/06/07 09:34:03;;;;;;;;;;;;;;;20.94;44.94;102449.28;5137567;27;19933;-39
2021/06/07 09:36:29;;;;;;;;;;;;;;;21.15;44.50;102439.28;5138187;27;19911;-39
2021/06/07 09:38:55;;;;;;;;;;;;;;;21.30;43.07;102439.41;5137470;27;19964;-39
2021/06/07 09:41:20;;;;;;;;;;;;;;;21.17;42.85;102447.25;5137556;27;20270;-39
2021/06/07 09:43:55;;;;;;;;;;;;;;;21.36;43.76;102447.72;5137476;27;19972;-39
2021/06/07 09:46:21;;;;;;;;;;;;;;;21.55;44.19;102449.75;5137931;27;19965;-39
2021/06/07 09:48:47;;;;;;;;;;;;;;;21.65;43.00;102443.47;5137099;27;20439;-39
2021/06/07 09:51:18;;;;;;;;;;;;;;;21.72;41.92;102449.59;5138241;27;19959;-39
2021/06/07 09:53:46;;;;;;;;;;;;;;;21.66;41.06;102450.63;5137501;27;20010;-39
2021/06/07 09:56:11;;;;;;;;;;;;;;;21.70;42.55;102446.25;5137249;27;19918;-39
2021/06/07 09:58:37;;;;;;;;;;;;;;;21.71;39.96;102444.34;5137107;27;19912;-39
2021/06/07 10:01:09;;;;;;;;;;;;;;;21.69;40.48;102450.13;5137183;27;19960;-39
2021/06/07 10:03:41;;;;;;;;;;;;;;;21.78;41.03;102443.00;5137035;27;19911;-39
2021/06/07 10:06:36;;;;;;;;;;;;;;;21.92;39.75;102445.28;5137638;27;19911;-39
2021/06/07 10:09:14;;;;;;;;;;;;;;;22.01;38.94;102440.88;5114181;28;19916;-39
2021/06/07 10:11:41;;;;;;;;;;;;;;;22.12;38.88;102439.88;5114367;28;19974;-39
2021/06/07 10:14:19;;;;;;;;;;;;;;;22.13;39.61;102438.78;5114100;28;19912;-39
2021/06/07 10:17:00;;;;;;;;;;;;;;;22.32;41.40;102437.19;5114755;28;20257;-39
2021/06/07 10:22:16;;;;;;;;;;;;;;;22.81;39.57;102436.72;5073271;28;19914;-39
2021/06/07 10:24:41;;;;;;;;;;;;;;;22.83;37.25;102437.25;5072974;28;19916;-39
2021/06/07 10:27:07;;;;;;;;;;;;;;;22.89;37.03;102435.38;5073216;28;19961;-40
2021/06/07 10:29:37;;;;;;;;;;;;;;;22.80;37.91;102432.31;5073603;28;20005;-40
2021/06/07 10:32:09;;;;;;;;;;;;;;;22.81;37.07;102433.94;5073031;28;20015;-40
2021/06/07 10:34:51;;;;;;;;;;;;;;;22.91;39.42;102429.56;5072567;28;19919;-40
2021/06/07 10:37:16;;;;;;;;;;;;;;;23.05;38.22;102430.69;5072811;28;19913;-40
2021/06/07 10:39:42;;;;;;;;;;;;;;;23.14;37.46;102434.53;5073501;28;20015;-40
2021/06/07 10:42:07;;;;;;;;;;;;;;;23.14;38.95;102429.00;5072814;28;19954;-40
2021/06/07 10:44:40;;;;;;;;;;;;;;;23.11;37.26;102427.63;5072724;28;20363;-40
2021/06/07 10:47:09;;;;;;;;;;;;;;;23.11;37.79;102429.56;5072872;28;19912;-40
2021/06/07 10:49:40;;;;;;;;;;;;;;;23.19;38.21;102426.25;5072734;28;19912;-40
2021/06/07 10:52:11;;;;;;;;;;;;;;;23.38;38.21;102426.50;5072516;28;20376;-39
2021/06/07 10:54:38;;;;;;;;;;;;;;;23.13;37.44;102419.91;5073385;28;20002;-39
2021/06/07 10:57:22;;;;;;;;;;;;;;;23.32;38.45;102417.38;5073065;28;19919;-39
2021/06/07 10:59:48;;;;;;;;;;;;;;;23.55;38.25;102415.13;5118963;27;19934;-39
2021/06/07 11:02:17;;;;;;;;;;;;;;;23.58;37.14;102415.41;5135494;27;20355;-39
2021/06/07 11:04:42;;;;;;;;;;;;;;;23.67;37.97;102412.91;5136691;27;19918;-39
2021/06/07 11:07:11;;;;;;;;;;;;;;;23.94;35.83;102418.03;5136316;27;19911;-39
2021/06/07 11:09:56;;;;;;;;;;;;;;;23.84;35.50;102413.38;5136037;27;20394;-39
2021/06/07 11:12:31;;;;;;;;;;;;;;;23.67;35.75;102417.59;5136278;27;19925;-39
2021/06/07 11:15:07;;;;;;;;;;;;;;;23.79;36.74;102415.34;5136067;27;19918;-39
2021/06/07 11:17:32;;;;;;;;;;;;;;;23.85;35.16;102417.81;5136552;27;19912;-39
2021/06/07 11:19:57;;;;;;;;;;;;;;;23.96;36.45;102410.31;5135873;27;20248;-39
2021/06/07 11:22:22;;;;;;;;;;;;;;;24.14;36.52;102406.88;5134120;27;19911;-39
2021/06/07 11:24:47;;;;;;;;;;;;;;;23.89;35.52;102407.03;5135739;27;19994;-39
2021/06/07 11:27:32;;;;;;;;;;;;;;;24.02;36.82;102411.13;5135947;27;19911;-39
2021/06/07 11:30:12;;;;;;;;;;;;;;;23.98;34.93;102410.84;5135398;27;19936;-40
2021/06/07 11:32:40;;;;;;;;;;;;;;;24.08;36.11;102409.97;5136153;27;19915;-39
2021/06/07 11:35:05;;;;;;;;;;;;;;;24.20;35.38;102401.31;5135942;27;19918;-39
2021/06/07 11:37:35;;;;;;;;;;;;;;;24.12;34.68;102403.59;5135157;27;19911;-39
2021/06/07 11:40:02;;;;;;;;;;;;;;;24.27;36.95;102397.16;5135840;27;20343;-39
2021/06/07 11:42:28;;;;;;;;;;;;;;;24.26;34.11;102397.44;5135181;27;19911;-39
2021/06/07 11:45:08;;;;;;;;;;;;;;;24.15;34.11;102399.41;5135600;27;19998;-39
2021/06/07 11:47:36;;;;;;;;;;;;;;;24.31;35.68;102401.00;5135386;27;19911;-39
2021/06/07 11:50:02;;;;;;;;;;;;;;;24.32;35.73;102393.53;5134812;27;19919;-39
2021/06/07 11:52:47;;;;;;;;;;;;;;;24.39;34.25;102394.88;5135000;27;19999;-40
2021/06/07 11:55:32;;;;;;;;;;;;;;;24.43;34.80;102389.59;5135614;27;19958;-39
2021/06/07 11:58:06;;;;;;;;;;;;;;;24.52;35.78;102385.13;5134965;27;20044;-40
2021/06/07 12:00:33;;;;;;;;;;;;;;;24.64;35.14;102390.25;5134905;27;19918;-39
2021/06/07 12:03:03;;;;;;;;;;;;;;;24.69;34.89;102387.44;5134823;27;19923;-39
2021/06/07 12:05:29;;;;;;;;;;;;;;;24.89;35.72;102384.53;5133810;27;19911;-39
2021/06/07 12:08:02;;;;;;;;;;;;;;;25.05;33.93;102384.38;5133414;27;20362;-39
2021/06/07 12:10:27;;;;;;;;;;;;;;;24.97;33.93;102373.94;5135105;27;19911;-39
2021/06/07 12:12:52;;;;;;;;;;;;;;;24.88;33.43;102366.25;5135066;28;20433;-39
2021/06/07 12:15:18;;;;;;;;;;;;;;;24.89;31.97;102367.94;5135421;28;20375;-39
2021/06/07 12:17:56;;;;;;;;;;;;;;;24.61;33.22;102369.56;5135333;28;19911;-39
2021/06/07 12:20:22;;;;;;;;;;;;;;;24.71;33.95;102371.41;5135470;28;20014;-39
2021/06/07 12:22:48;;;;;;;;;;;;;;;24.60;33.03;102373.44;5134470;28;19950;-39
2021/06/07 12:30:35;;;;;;;;;;;;;;;24.84;34.21;102361.59;5135222;28;20316;-39
2021/06/07 12:33:00;;;;;;;;;;;;;;;25.05;32.24;102348.41;5133422;28;19958;-40
2021/06/07 12:35:28;;;;;;;;;;;;;;;25.29;32.22;102354.81;5134586;28;19958;-40
2021/06/07 12:37:54;;;;;;;;;;;;;;;25.27;32.10;102353.44;5134836;28;20011;-39
2021/06/07 12:40:33;;;;;;;;;;;;;;;24.95;32.54;102345.75;5134295;28;19921;-39
2021/06/07 12:43:01;;;;;;;;;;;;;;;24.62;33.17;102351.03;5135387;28;19965;-39